Time;durP1;ratioP1;P1;durP2;ratioP2;P2;SDS_P1;SDS_P2;PMS_P1;PMS_P2;Temp;Humidity;BMP_temperature;BMP_pressure;BME280_temperature;BME280_humidity;BME280_pressure;Samples;Min_cycle;Max_cycle;Signal;HPM_P1;HPM_P2
2022/10/25 00:01:15;;;;;;;22.40;20.70;;;;;;;;;;5119334;28;21054;-80
2022/10/25 00:03:42;;;;;;;20.60;19.30;;;;;;;;;;5118311;27;20494;-79
2022/10/25 00:06:10;;;;;;;21.50;20.10;;;;;;;;;;5118470;28;20448;-79
2022/10/25 00:08:38;;;;;;;20.53;19.23;;;;;;;;;;5118822;28;20445;-80
2022/10/25 00:11:07;;;;;;;20.80;19.40;;;;;;;;;;5118320;28;20448;-81
2022/10/25 00:13:35;;;;;;;19.57;18.17;;;;;;;;;;5117981;28;20561;-80
2022/10/25 00:16:02;;;;;;;20.60;19.10;;;;;;;;;;5118903;27;20494;-80
2022/10/25 00:18:30;;;;;;;20.53;18.87;;;;;;;;;;5118890;28;20455;-80
2022/10/25 00:20:57;;;;;;;20.53;19.23;;;;;;;;;;5118524;28;20453;-80
2022/10/25 00:23:25;;;;;;;19.33;18.10;;;;;;;;;;5118765;28;20441;-79
2022/10/25 00:26:01;;;;;;;22.20;20.50;;;;;;;;;;5118042;27;20479;-81
2022/10/25 00:28:30;;;;;;;23.33;21.50;;;;;;;;;;5119021;28;20445;-79
2022/10/25 00:31:01;;;;;;;24.83;23.10;;;;;;;;;;5118276;28;20449;-79
2022/10/25 00:33:29;;;;;;;25.60;23.97;;;;;;;;;;5118470;28;20818;-79
2022/10/25 00:35:56;;;;;;;25.20;23.70;;;;;;;;;;5119044;28;20791;-80
2022/10/25 00:38:24;;;;;;;27.03;25.40;;;;;;;;;;5117836;27;20474;-81
2022/10/25 00:40:51;;;;;;;26.00;24.30;;;;;;;;;;5119184;28;20459;-81
2022/10/25 00:43:33;;;;;;;27.10;25.70;;;;;;;;;;5118235;28;20471;-79
2022/10/25 00:46:02;;;;;;;24.57;23.37;;;;;;;;;;5118302;28;20433;-79
2022/10/25 00:48:29;;;;;;;25.00;23.33;;;;;;;;;;5118579;27;20465;-80
2022/10/25 00:50:57;;;;;;;23.80;22.60;;;;;;;;;;5117623;28;20455;-80
2022/10/25 00:53:27;;;;;;;25.47;23.50;;;;;;;;;;5117803;28;20488;-80
2022/10/25 00:55:57;;;;;;;24.50;23.10;;;;;;;;;;5117968;28;20819;-79
2022/10/25 00:58:26;;;;;;;24.00;22.67;;;;;;;;;;5118290;27;20410;-81
2022/10/25 01:00:55;;;;;;;24.03;22.20;;;;;;;;;;5117846;28;20903;-81
2022/10/25 01:03:23;;;;;;;22.83;21.70;;;;;;;;;;5117931;28;20533;-79
2022/10/25 01:05:52;;;;;;;23.37;21.93;;;;;;;;;;5118344;28;20450;-80
2022/10/25 01:08:20;;;;;;;23.37;21.97;;;;;;;;;;5117631;28;20450;-80
2022/10/25 01:10:48;;;;;;;23.73;22.13;;;;;;;;;;5117255;27;20473;-79
2022/10/25 01:13:16;;;;;;;21.17;19.60;;;;;;;;;;5117355;28;20493;-80
2022/10/25 01:15:49;;;;;;;21.40;20.33;;;;;;;;;;5117785;28;20447;-80
2022/10/25 01:18:21;;;;;;;22.20;20.60;;;;;;;;;;5117898;28;20441;-79
2022/10/25 01:21:03;;;;;;;30.87;20.00;;;;;;;;;;5118106;28;20438;-82
2022/10/25 01:23:44;;;;;;;22.30;20.63;;;;;;;;;;5115213;27;20840;-80
2022/10/25 01:26:20;;;;;;;22.20;20.93;;;;;;;;;;5116950;28;20432;-79
2022/10/25 01:28:53;;;;;;;22.17;20.33;;;;;;;;;;5118334;28;20435;-80
2022/10/25 01:31:25;;;;;;;21.87;20.37;;;;;;;;;;5118000;28;20546;-79
2022/10/25 01:33:54;;;;;;;22.00;20.63;;;;;;;;;;5117270;27;20462;-80
2022/10/25 01:36:26;;;;;;;21.63;20.43;;;;;;;;;;5117538;28;20455;-79
2022/10/25 01:39:01;;;;;;;21.60;20.27;;;;;;;;;;5117589;28;20978;-79
2022/10/25 01:41:31;;;;;;;22.20;20.80;;;;;;;;;;5116820;28;20411;-79
2022/10/25 01:44:04;;;;;;;22.33;20.80;;;;;;;;;;5117661;28;20461;-79
2022/10/25 01:46:36;;;;;;;21.90;20.60;;;;;;;;;;5119660;28;20436;-81
2022/10/25 01:49:05;;;;;;;21.10;19.80;;;;;;;;;;5132107;28;20420;-81
2022/10/25 01:51:35;;;;;;;22.77;21.30;;;;;;;;;;5130372;28;20427;-79
2022/10/25 01:54:03;;;;;;;20.30;19.20;;;;;;;;;;5126400;27;20483;-81
2022/10/25 01:56:32;;;;;;;20.90;19.20;;;;;;;;;;5117053;28;20448;-79
2022/10/25 01:59:13;;;;;;;20.97;19.87;;;;;;;;;;5117235;28;20426;-79
2022/10/25 02:01:49;;;;;;;20.57;19.47;;;;;;;;;;5116942;28;20413;-79
2022/10/25 02:04:19;;;;;;;22.67;20.97;;;;;;;;;;5116720;27;20494;-79
2022/10/25 02:06:49;;;;;;;21.80;20.47;;;;;;;;;;5117383;28;20433;-80
2022/10/25 02:09:21;;;;;;;22.13;20.67;;;;;;;;;;5117402;28;20471;-79
2022/10/25 02:11:50;;;;;;;22.20;20.90;;;;;;;;;;5117031;28;20448;-79
2022/10/25 02:14:22;;;;;;;22.37;20.47;;;;;;;;;;5116181;27;20488;-81
2022/10/25 02:16:54;;;;;;;21.20;19.70;;;;;;;;;;5116520;28;20445;-79
2022/10/25 02:19:24;;;;;;;20.20;18.80;;;;;;;;;;5117053;28;20748;-81
2022/10/25 02:21:52;;;;;;;19.70;18.37;;;;;;;;;;5116588;28;20428;-80
2022/10/25 02:24:21;;;;;;;20.17;18.87;;;;;;;;;;5116235;28;20435;-79
2022/10/25 02:26:49;;;;;;;19.60;18.60;;;;;;;;;;5115845;27;20450;-80
2022/10/25 02:29:17;;;;;;;20.17;18.77;;;;;;;;;;5116721;28;20452;-80
2022/10/25 02:31:45;;;;;;;20.07;18.67;;;;;;;;;;5116007;28;20448;-81
2022/10/25 02:34:14;;;;;;;20.93;19.07;;;;;;;;;;5116349;28;20863;-79
2022/10/25 02:36:41;;;;;;;20.00;18.60;;;;;;;;;;5116045;27;20463;-79
2022/10/25 02:39:09;;;;;;;20.80;19.50;;;;;;;;;;5116629;28;20809;-80
2022/10/25 02:41:36;;;;;;;19.40;18.30;;;;;;;;;;5116227;28;20455;-80
2022/10/25 02:44:04;;;;;;;20.20;18.73;;;;;;;;;;5116337;28;20834;-80
2022/10/25 02:46:31;;;;;;;21.97;20.17;;;;;;;;;;5116326;27;20479;-80
2022/10/25 02:48:59;;;;;;;19.43;18.43;;;;;;;;;;5116256;28;20453;-79
2022/10/25 02:51:28;;;;;;;20.17;18.47;;;;;;;;;;5116180;28;20458;-81
2022/10/25 02:53:55;;;;;;;20.57;19.10;;;;;;;;;;5116137;28;20466;-79
2022/10/25 02:56:24;;;;;;;19.53;18.30;;;;;;;;;;5116460;28;20456;-79
2022/10/25 02:58:52;;;;;;;20.90;19.30;;;;;;;;;;5116627;27;20518;-80
2022/10/25 03:01:20;;;;;;;20.30;19.03;;;;;;;;;;5116683;28;20424;-79
2022/10/25 03:03:47;;;;;;;21.40;19.83;;;;;;;;;;5120366;28;20976;-80
2022/10/25 03:06:15;;;;;;;19.40;18.30;;;;;;;;;;5120556;28;20802;-80
2022/10/25 03:08:45;;;;;;;19.10;18.00;;;;;;;;;;5120676;28;20493;-79
2022/10/25 03:11:13;;;;;;;19.80;18.50;;;;;;;;;;5119405;27;20467;-79
2022/10/25 03:13:40;;;;;;;20.17;18.80;;;;;;;;;;5120120;28;20914;-79
2022/10/25 03:16:08;;;;;;;20.37;19.13;;;;;;;;;;5120311;28;20453;-79
2022/10/25 03:18:35;;;;;;;19.90;18.60;;;;;;;;;;5120538;28;20896;-79
2022/10/25 03:21:03;;;;;;;20.37;19.27;;;;;;;;;;5120095;28;20426;-79
2022/10/25 03:23:31;;;;;;;19.30;18.10;;;;;;;;;;5119517;27;20465;-79
2022/10/25 03:26:00;;;;;;;19.00;17.80;;;;;;;;;;5120076;28;20434;-80
2022/10/25 03:28:29;;;;;;;20.90;19.70;;;;;;;;;;5120134;28;20444;-79
2022/10/25 03:30:56;;;;;;;20.40;18.70;;;;;;;;;;5119971;28;20534;-80
2022/10/25 03:33:24;;;;;;;19.67;18.47;;;;;;;;;;5119037;27;20481;-81
2022/10/25 03:35:52;;;;;;;20.33;19.03;;;;;;;;;;5119413;28;20439;-80
2022/10/25 03:38:19;;;;;;;20.60;19.00;;;;;;;;;;5119124;28;20435;-79
2022/10/25 03:40:47;;;;;;;19.73;18.63;;;;;;;;;;5119663;28;20441;-81
2022/10/25 03:43:15;;;;;;;30.30;22.07;;;;;;;;;;5119468;28;20468;-79
2022/10/25 03:45:43;;;;;;;21.30;19.70;;;;;;;;;;5119062;27;20459;-81
2022/10/25 03:48:10;;;;;;;18.87;17.80;;;;;;;;;;5119682;28;20447;-79
2022/10/25 03:50:37;;;;;;;19.83;18.53;;;;;;;;;;5119748;28;20797;-81
2022/10/25 03:53:05;;;;;;;20.43;18.30;;;;;;;;;;5119154;28;20464;-80
2022/10/25 03:55:33;;;;;;;20.60;19.17;;;;;;;;;;5118909;27;20515;-79
2022/10/25 03:58:00;;;;;;;20.10;18.80;;;;;;;;;;5119510;28;20454;-79
2022/10/25 04:00:29;;;;;;;21.40;20.03;;;;;;;;;;5119538;28;20444;-80
2022/10/25 04:02:57;;;;;;;19.67;18.50;;;;;;;;;;5118866;28;20469;-79
2022/10/25 04:05:24;;;;;;;19.53;18.10;;;;;;;;;;5118745;27;20837;-81
2022/10/25 04:07:51;;;;;;;19.37;18.17;;;;;;;;;;5119979;28;20437;-79
2022/10/25 04:10:19;;;;;;;20.17;19.13;;;;;;;;;;5119108;28;20452;-79
2022/10/25 04:12:46;;;;;;;20.30;18.70;;;;;;;;;;5117810;28;21008;-79
2022/10/25 04:15:14;;;;;;;19.63;18.33;;;;;;;;;;5118261;28;20480;-79
2022/10/25 04:17:43;;;;;;;18.63;17.63;;;;;;;;;;5118534;27;20462;-82
2022/10/25 04:20:10;;;;;;;19.70;18.37;;;;;;;;;;5118580;28;20453;-79
2022/10/25 04:22:38;;;;;;;19.13;17.70;;;;;;;;;;5118710;28;20446;-80
2022/10/25 04:25:05;;;;;;;20.20;18.80;;;;;;;;;;5118998;28;20761;-80
2022/10/25 04:27:33;;;;;;;19.47;18.47;;;;;;;;;;5118362;27;20470;-79
2022/10/25 04:30:00;;;;;;;20.60;19.10;;;;;;;;;;5119465;28;20455;-80
2022/10/25 04:32:27;;;;;;;20.90;19.57;;;;;;;;;;5118144;28;20448;-81
2022/10/25 04:34:56;;;;;;;21.67;20.53;;;;;;;;;;5119221;28;20487;-79
2022/10/25 04:37:24;;;;;;;19.70;18.10;;;;;;;;;;5118454;27;20470;-81
2022/10/25 04:39:51;;;;;;;21.30;19.70;;;;;;;;;;5118723;28;20450;-78
2022/10/25 04:42:19;;;;;;;20.63;19.20;;;;;;;;;;5117861;28;20456;-81
2022/10/25 04:44:46;;;;;;;19.73;18.50;;;;;;;;;;5118619;28;20462;-87
2022/10/25 04:47:13;;;;;;;20.20;19.00;;;;;;;;;;5118904;28;20439;-80
2022/10/25 04:49:41;;;;;;;20.70;19.50;;;;;;;;;;5117918;27;20476;-80
2022/10/25 04:52:10;;;;;;;20.93;19.30;;;;;;;;;;5118423;28;20451;-79
2022/10/25 04:54:37;;;;;;;20.27;18.87;;;;;;;;;;5117800;28;20480;-81
2022/10/25 04:57:06;;;;;;;21.03;19.73;;;;;;;;;;5118137;28;20448;-80
2022/10/25 04:59:33;;;;;;;21.30;19.30;;;;;;;;;;5118380;28;20915;-81
2022/10/25 05:02:00;;;;;;;21.43;19.83;;;;;;;;;;5117494;27;20471;-79
2022/10/25 05:04:27;;;;;;;24.47;19.27;;;;;;;;;;5117964;28;20461;-81
2022/10/25 05:06:55;;;;;;;21.00;19.43;;;;;;;;;;5118188;28;20446;-79
2022/10/25 05:09:24;;;;;;;22.63;20.00;;;;;;;;;;5118397;28;20453;-80
2022/10/25 05:11:51;;;;;;;21.20;19.50;;;;;;;;;;5116772;27;20452;-80
2022/10/25 05:14:18;;;;;;;22.00;20.40;;;;;;;;;;5117209;28;20483;-79
2022/10/25 05:16:46;;;;;;;19.97;18.40;;;;;;;;;;5117856;28;20448;-80
2022/10/25 05:19:13;;;;;;;20.60;19.20;;;;;;;;;;5117858;28;20445;-80
2022/10/25 05:21:40;;;;;;;19.70;18.50;;;;;;;;;;5117326;28;20452;-79
2022/10/25 05:24:08;;;;;;;24.00;19.97;;;;;;;;;;5117105;27;20489;-81
2022/10/25 05:26:36;;;;;;;20.83;19.43;;;;;;;;;;5118142;28;20444;-80
2022/10/25 05:29:04;;;;;;;22.27;20.57;;;;;;;;;;5118166;28;20445;-79
2022/10/25 05:31:31;;;;;;;19.70;18.50;;;;;;;;;;5116977;28;21253;-79
2022/10/25 05:33:59;;;;;;;21.17;19.30;;;;;;;;;;5116729;27;20465;-80
2022/10/25 05:36:28;;;;;;;19.63;18.20;;;;;;;;;;5117671;28;20467;-81
2022/10/25 05:38:55;;;;;;;20.80;19.17;;;;;;;;;;5116670;28;20427;-79
2022/10/25 05:41:22;;;;;;;20.83;19.23;;;;;;;;;;5116652;28;20445;-79
2022/10/25 05:43:51;;;;;;;21.50;19.87;;;;;;;;;;5117395;28;20882;-79
2022/10/25 05:46:19;;;;;;;20.57;19.37;;;;;;;;;;5116978;27;20460;-80
2022/10/25 05:48:47;;;;;;;21.33;19.67;;;;;;;;;;5117057;28;20452;-80
2022/10/25 05:51:15;;;;;;;21.43;20.07;;;;;;;;;;5117270;28;20466;-79
2022/10/25 05:53:44;;;;;;;21.70;20.10;;;;;;;;;;5117141;28;20460;-79
2022/10/25 05:56:11;;;;;;;21.70;19.83;;;;;;;;;;5116845;27;20502;-81
2022/10/25 05:58:38;;;;;;;21.10;19.70;;;;;;;;;;5116338;28;20460;-82
2022/10/25 06:01:07;;;;;;;20.60;19.23;;;;;;;;;;5122473;27;20456;-82
2022/10/25 06:03:35;;;;;;;22.00;20.30;;;;;;;;;;5136828;27;20465;-79
2022/10/25 06:06:03;;;;;;;20.33;19.17;;;;;;;;;;5137942;27;20436;-81
2022/10/25 06:08:31;;;;;;;20.40;19.10;;;;;;;;;;5139232;27;20425;-80
2022/10/25 06:11:01;;;;;;;23.30;21.50;;;;;;;;;;5137422;27;20450;-80
2022/10/25 06:13:29;;;;;;;24.03;22.03;;;;;;;;;;5137136;27;20510;-79
2022/10/25 06:15:56;;;;;;;22.60;20.90;;;;;;;;;;5134287;27;21299;-76
2022/10/25 06:18:25;;;;;;;22.60;21.07;;;;;;;;;;5134104;27;20447;-77
2022/10/25 06:20:52;;;;;;;22.40;20.90;;;;;;;;;;5133980;27;20470;-77
2022/10/25 06:23:20;;;;;;;22.70;21.20;;;;;;;;;;5133224;27;20454;-76
2022/10/25 06:25:47;;;;;;;22.80;21.27;;;;;;;;;;5133705;27;20444;-75
2022/10/25 06:28:15;;;;;;;23.37;21.93;;;;;;;;;;5134216;27;20466;-76
2022/10/25 06:30:42;;;;;;;23.03;21.63;;;;;;;;;;5135454;27;20554;-77
2022/10/25 06:33:10;;;;;;;22.57;21.27;;;;;;;;;;5153407;27;20485;-76
2022/10/25 06:35:38;;;;;;;23.23;21.63;;;;;;;;;;5154628;27;20456;-77
2022/10/25 06:38:06;;;;;;;24.03;22.00;;;;;;;;;;5161040;27;20449;-77
2022/10/25 06:40:34;;;;;;;24.77;23.07;;;;;;;;;;5161193;27;20437;-76
2022/10/25 06:43:02;;;;;;;23.67;21.67;;;;;;;;;;5160457;27;20860;-76
2022/10/25 06:45:29;;;;;;;23.83;21.70;;;;;;;;;;5162529;27;20882;-78
2022/10/25 06:47:56;;;;;;;23.87;22.07;;;;;;;;;;5168924;27;20417;-76
2022/10/25 06:50:23;;;;;;;22.87;21.20;;;;;;;;;;5166208;27;20442;-78
2022/10/25 06:52:52;;;;;;;23.80;22.10;;;;;;;;;;5160718;27;20461;-77
2022/10/25 06:55:20;;;;;;;25.27;23.47;;;;;;;;;;5160687;27;20951;-77
2022/10/25 06:57:47;;;;;;;24.00;22.30;;;;;;;;;;5161173;27;20908;-76
2022/10/25 07:00:15;;;;;;;25.40;23.10;;;;;;;;;;5161393;27;20450;-76
2022/10/25 07:02:42;;;;;;;23.73;22.03;;;;;;;;;;5160231;27;20440;-77
2022/10/25 07:05:10;;;;;;;23.13;21.73;;;;;;;;;;5161353;27;20441;-76
2022/10/25 07:07:37;;;;;;;24.17;22.50;;;;;;;;;;5161306;27;20448;-76
2022/10/25 07:10:06;;;;;;;23.90;22.10;;;;;;;;;;5160577;27;20465;-76
2022/10/25 07:12:36;;;;;;;23.80;22.13;;;;;;;;;;5160018;27;20423;-78
2022/10/25 07:15:04;;;;;;;23.57;21.97;;;;;;;;;;5160909;27;20498;-77
2022/10/25 07:17:32;;;;;;;23.87;21.73;;;;;;;;;;5161223;27;20446;-76
2022/10/25 07:19:59;;;;;;;23.17;20.97;;;;;;;;;;5160317;27;20966;-77
2022/10/25 07:22:27;;;;;;;22.63;21.27;;;;;;;;;;5160165;27;20412;-76
2022/10/25 07:24:55;;;;;;;24.43;22.43;;;;;;;;;;5161237;27;20491;-77
2022/10/25 07:27:23;;;;;;;24.33;22.50;;;;;;;;;;5161064;27;20556;-76
2022/10/25 07:29:51;;;;;;;25.17;23.13;;;;;;;;;;5160359;27;20436;-77
2022/10/25 07:32:18;;;;;;;25.23;23.30;;;;;;;;;;5160344;27;20429;-78
2022/10/25 07:34:46;;;;;;;23.60;21.73;;;;;;;;;;5160650;27;20944;-77
2022/10/25 07:37:13;;;;;;;23.53;21.90;;;;;;;;;;5161083;27;20872;-77
2022/10/25 07:39:41;;;;;;;23.20;21.47;;;;;;;;;;5160997;27;20822;-79
2022/10/25 07:42:10;;;;;;;25.13;23.33;;;;;;;;;;5160945;27;20497;-87
2022/10/25 07:44:38;;;;;;;22.27;20.37;;;;;;;;;;5143676;27;20467;-80
2022/10/25 07:47:06;;;;;;;23.47;21.37;;;;;;;;;;5142975;27;20812;-86
2022/10/25 07:49:35;;;;;;;24.07;22.20;;;;;;;;;;5137134;27;20437;-81
2022/10/25 07:52:02;;;;;;;23.80;21.80;;;;;;;;;;5137311;27;20501;-78
2022/10/25 07:54:30;;;;;;;23.03;21.33;;;;;;;;;;5137897;27;20818;-78
2022/10/25 07:56:57;;;;;;;23.13;21.53;;;;;;;;;;5137139;27;20509;-78
2022/10/25 07:59:25;;;;;;;21.17;19.67;;;;;;;;;;5136843;27;20447;-82
2022/10/25 08:01:53;;;;;;;23.27;21.50;;;;;;;;;;5136127;27;20971;-77
2022/10/25 08:04:21;;;;;;;23.30;21.40;;;;;;;;;;5136531;27;20491;-79
2022/10/25 08:06:48;;;;;;;23.37;21.57;;;;;;;;;;5136401;27;20450;-78
2022/10/25 08:09:16;;;;;;;24.07;22.50;;;;;;;;;;5136634;27;20961;-78
2022/10/25 08:11:43;;;;;;;24.10;22.40;;;;;;;;;;5135943;27;20573;-77
2022/10/25 08:14:10;;;;;;;23.10;21.60;;;;;;;;;;5140150;27;20476;-83
2022/10/25 08:16:37;;;;;;;24.50;22.70;;;;;;;;;;5140581;27;20495;-86
2022/10/25 08:19:07;;;;;;;23.20;21.40;;;;;;;;;;5141923;27;20459;-83
2022/10/25 08:21:34;;;;;;;23.17;21.67;;;;;;;;;;5139535;27;20423;-77
2022/10/25 08:24:02;;;;;;;23.60;21.73;;;;;;;;;;5136107;27;20475;-76
2022/10/25 08:26:29;;;;;;;24.10;22.20;;;;;;;;;;5136261;27;20443;-77
2022/10/25 08:28:56;;;;;;;23.60;21.80;;;;;;;;;;5135817;27;20992;-77
2022/10/25 08:31:24;;;;;;;24.50;22.97;;;;;;;;;;5135411;27;20798;-77
2022/10/25 08:33:51;;;;;;;24.40;22.20;;;;;;;;;;5135749;27;20468;-77
2022/10/25 08:36:20;;;;;;;24.37;22.33;;;;;;;;;;5135918;27;20544;-77
2022/10/25 08:38:48;;;;;;;21.80;20.50;;;;;;;;;;5135512;27;20451;-77
2022/10/25 08:41:18;;;;;;;25.67;23.47;;;;;;;;;;5135379;27;20445;-77
2022/10/25 08:44:04;;;;;;;23.60;22.17;;;;;;;;;;5135126;27;20459;-77
2022/10/25 08:46:33;;;;;;;25.33;23.73;;;;;;;;;;5135674;27;20447;-76
2022/10/25 08:49:06;;;;;;;23.60;22.10;;;;;;;;;;5135415;27;20849;-77
2022/10/25 08:51:37;;;;;;;22.27;20.97;;;;;;;;;;5134921;27;20411;-76
2022/10/25 08:54:06;;;;;;;24.50;22.70;;;;;;;;;;5135614;27;20827;-77
2022/10/25 08:56:34;;;;;;;21.37;19.90;;;;;;;;;;5135335;27;20476;-77
2022/10/25 08:59:02;;;;;;;24.40;22.60;;;;;;;;;;5135057;27;20421;-76
2022/10/25 09:01:30;;;;;;;24.37;22.73;;;;;;;;;;5134479;27;20451;-76
2022/10/25 09:03:59;;;;;;;23.87;22.10;;;;;;;;;;5134594;27;20981;-76
2022/10/25 09:06:32;;;;;;;23.27;21.77;;;;;;;;;;5135164;27;20840;-77
2022/10/25 09:09:16;;;;;;;25.30;23.27;;;;;;;;;;5134880;27;20765;-78
2022/10/25 09:11:49;;;;;;;25.20;23.00;;;;;;;;;;5134761;27;20443;-76
2022/10/25 09:14:21;;;;;;;24.03;22.43;;;;;;;;;;5134666;27;20852;-76
2022/10/25 09:16:50;;;;;;;25.87;23.87;;;;;;;;;;5134627;27;20969;-83
2022/10/25 09:19:19;;;;;;;25.93;23.90;;;;;;;;;;5134824;27;20947;-85
2022/10/25 09:21:51;;;;;;;24.50;22.40;;;;;;;;;;5138899;27;20510;-77
2022/10/25 09:24:23;;;;;;;25.80;23.80;;;;;;;;;;5134504;27;20443;-77
2022/10/25 09:26:56;;;;;;;25.30;23.23;;;;;;;;;;5134772;27;20777;-77
2022/10/25 09:29:26;;;;;;;25.17;23.27;;;;;;;;;;5134700;27;20410;-76
2022/10/25 09:31:57;;;;;;;25.67;23.83;;;;;;;;;;5134200;27;20409;-76
2022/10/25 09:34:26;;;;;;;26.30;24.10;;;;;;;;;;5133885;27;20507;-76
2022/10/25 09:36:56;;;;;;;28.53;26.33;;;;;;;;;;5133618;27;20483;-76
2022/10/25 09:39:30;;;;;;;25.67;23.63;;;;;;;;;;5133931;27;20439;-76
2022/10/25 09:42:00;;;;;;;25.37;23.40;;;;;;;;;;5133307;27;20441;-76
2022/10/25 09:44:40;;;;;;;22.73;21.27;;;;;;;;;;5133659;27;20439;-76
2022/10/25 09:47:13;;;;;;;25.50;23.70;;;;;;;;;;5133642;27;20817;-77
2022/10/25 09:49:44;;;;;;;25.90;23.70;;;;;;;;;;5134738;27;20435;-77
2022/10/25 09:52:16;;;;;;;24.53;22.93;;;;;;;;;;5132742;27;20417;-76
2022/10/25 09:54:47;;;;;;;25.03;23.13;;;;;;;;;;5134081;27;20453;-77
2022/10/25 09:57:16;;;;;;;25.17;23.47;;;;;;;;;;5133386;27;20438;-78
2022/10/25 09:59:44;;;;;;;25.57;23.70;;;;;;;;;;5134173;27;20448;-75
2022/10/25 10:02:17;;;;;;;25.60;23.80;;;;;;;;;;5133337;27;20939;-77
2022/10/25 10:04:44;;;;;;;24.73;23.00;;;;;;;;;;5132823;27;20441;-77
2022/10/25 10:07:15;;;;;;;23.67;22.20;;;;;;;;;;5132788;27;20426;-75
2022/10/25 10:09:44;;;;;;;24.80;22.90;;;;;;;;;;5132606;27;20446;-76
2022/10/25 10:12:17;;;;;;;23.50;22.03;;;;;;;;;;5131413;27;20436;-76
2022/10/25 10:14:47;;;;;;;24.63;22.83;;;;;;;;;;5133922;27;20783;-76
2022/10/25 10:17:19;;;;;;;24.50;22.90;;;;;;;;;;5133831;27;20471;-76
2022/10/25 10:20:06;;;;;;;30.03;24.17;;;;;;;;;;5133837;27;20639;-76
2022/10/25 10:22:34;;;;;;;24.40;22.53;;;;;;;;;;5133614;27;20434;-76
2022/10/25 10:25:02;;;;;;;24.90;23.40;;;;;;;;;;5133778;27;20457;-76
2022/10/25 10:27:33;;;;;;;24.13;22.53;;;;;;;;;;5133732;27;20424;-76
2022/10/25 10:30:01;;;;;;;25.90;23.90;;;;;;;;;;5133711;27;20936;-76
2022/10/25 10:32:32;;;;;;;23.87;22.37;;;;;;;;;;5133145;27;20444;-77
2022/10/25 10:34:59;;;;;;;24.43;22.93;;;;;;;;;;5133668;27;20454;-77
2022/10/25 10:37:28;;;;;;;22.80;21.30;;;;;;;;;;5133895;28;20484;-76
2022/10/25 10:39:55;;;;;;;23.37;21.43;;;;;;;;;;5133851;28;20436;-77
2022/10/25 10:42:23;;;;;;;24.63;22.40;;;;;;;;;;5133382;28;20458;-77
2022/10/25 10:45:02;;;;;;;24.27;22.30;;;;;;;;;;5133633;27;20449;-77
2022/10/25 10:47:32;;;;;;;24.47;22.37;;;;;;;;;;5133543;28;20441;-76
2022/10/25 10:50:00;;;;;;;22.30;20.90;;;;;;;;;;5133916;27;20426;-76
2022/10/25 10:52:30;;;;;;;26.23;24.23;;;;;;;;;;5132829;28;20940;-76
2022/10/25 10:54:57;;;;;;;24.93;23.17;;;;;;;;;;5133763;28;20472;-76
2022/10/25 10:57:28;;;;;;;27.43;25.00;;;;;;;;;;5133728;27;20466;-76
2022/10/25 10:59:56;;;;;;;26.63;24.70;;;;;;;;;;5133527;28;20419;-76
2022/10/25 11:02:29;;;;;;;25.87;24.03;;;;;;;;;;5132815;28;20460;-76
2022/10/25 11:04:57;;;;;;;25.97;24.17;;;;;;;;;;5133346;28;20458;-76
2022/10/25 11:07:27;;;;;;;25.77;23.80;;;;;;;;;;5133752;28;20403;-76
2022/10/25 11:09:54;;;;;;;26.60;24.57;;;;;;;;;;5133363;28;20430;-77
2022/10/25 11:12:21;;;;;;;26.30;24.50;;;;;;;;;;5132903;28;20449;-77
2022/10/25 11:14:49;;;;;;;26.43;24.20;;;;;;;;;;5133553;28;20439;-76
2022/10/25 11:17:19;;;;;;;28.40;25.83;;;;;;;;;;5133483;27;20483;-75
2022/10/25 11:20:03;;;;;;;29.10;26.43;;;;;;;;;;5133560;28;20908;-75
2022/10/25 11:22:38;;;;;;;25.43;23.63;;;;;;;;;;5133266;27;20432;-76
2022/10/25 11:25:12;;;;;;;27.40;25.27;;;;;;;;;;5137510;27;20450;-76
2022/10/25 11:27:46;;;;;;;28.03;25.37;;;;;;;;;;5137358;27;20480;-76
2022/10/25 11:30:15;;;;;;;27.83;25.50;;;;;;;;;;5136730;27;20426;-75
2022/10/25 11:33:01;;;;;;;31.63;28.00;;;;;;;;;;5138181;27;20472;-81
2022/10/25 11:35:45;;;;;;;27.77;25.13;;;;;;;;;;5140155;27;20804;-81
2022/10/25 11:38:16;;;;;;;26.90;24.90;;;;;;;;;;5136901;27;20518;-76
2022/10/25 11:40:47;;;;;;;27.70;25.87;;;;;;;;;;5139908;27;20406;-79
2022/10/25 11:43:23;;;;;;;28.23;26.03;;;;;;;;;;5141583;27;20467;-85
2022/10/25 11:45:57;;;;;;;29.50;26.97;;;;;;;;;;5121771;28;20417;-78
2022/10/25 11:48:29;;;;;;;27.83;25.57;;;;;;;;;;5121033;28;20784;-84
2022/10/25 11:51:03;;;;;;;29.53;27.43;;;;;;;;;;5121005;28;20436;-83
2022/10/25 11:53:37;;;;;;;28.10;25.83;;;;;;;;;;5121699;27;20450;-83
2022/10/25 11:56:07;;;;;;;29.00;26.53;;;;;;;;;;5128140;28;20809;-84
2022/10/25 11:58:39;;;;;;;28.30;25.87;;;;;;;;;;5135766;28;20448;-84
2022/10/25 12:01:12;;;;;;;28.30;25.83;;;;;;;;;;5149135;27;20447;-84
2022/10/25 12:03:50;;;;;;;27.27;25.30;;;;;;;;;;5146679;27;20455;-83
2022/10/25 12:06:23;;;;;;;26.70;24.50;;;;;;;;;;5142186;27;20429;-81
2022/10/25 12:08:56;;;;;;;28.63;26.37;;;;;;;;;;5137514;27;20434;-78
2022/10/25 12:11:25;;;;;;;27.73;25.40;;;;;;;;;;5137219;27;20440;-75
2022/10/25 12:13:55;;;;;;;29.17;27.10;;;;;;;;;;5135337;27;20510;-76
2022/10/25 12:16:24;;;;;;;28.63;26.50;;;;;;;;;;5136184;27;20461;-76
2022/10/25 12:18:52;;;;;;;28.37;26.47;;;;;;;;;;5136226;27;20476;-75
2022/10/25 12:21:23;;;;;;;23.23;21.73;;;;;;;;;;5135310;27;20418;-75
2022/10/25 12:23:51;;;;;;;27.33;25.17;;;;;;;;;;5135468;27;20483;-75
2022/10/25 12:26:22;;;;;;;29.57;27.30;;;;;;;;;;5135663;27;20464;-76
2022/10/25 12:28:49;;;;;;;29.50;27.07;;;;;;;;;;5135117;27;20449;-76
2022/10/25 12:31:19;;;;;;;29.20;27.20;;;;;;;;;;5135642;27;20471;-74
2022/10/25 12:33:49;;;;;;;30.10;27.00;;;;;;;;;;5135217;27;20980;-76
2022/10/25 12:36:20;;;;;;;27.57;25.30;;;;;;;;;;5134927;27;20476;-75
2022/10/25 12:38:49;;;;;;;27.83;25.23;;;;;;;;;;5135904;27;20449;-76
2022/10/25 12:41:21;;;;;;;28.70;26.80;;;;;;;;;;5135434;27;20459;-76
2022/10/25 12:43:54;;;;;;;27.17;25.07;;;;;;;;;;5135344;27;20986;-76
2022/10/25 12:46:39;;;;;;;28.50;26.37;;;;;;;;;;5135837;27;20434;-76
2022/10/25 12:49:19;;;;;;;27.17;25.17;;;;;;;;;;5135239;27;20449;-76
2022/10/25 12:51:52;;;;;;;27.67;25.30;;;;;;;;;;5134922;27;20428;-76
2022/10/25 12:54:30;;;;;;;26.37;24.70;;;;;;;;;;5135359;27;20469;-76
2022/10/25 12:57:02;;;;;;;27.73;25.93;;;;;;;;;;5135592;27;20821;-77
2022/10/25 12:59:37;;;;;;;25.70;24.00;;;;;;;;;;5135636;27;20432;-75
2022/10/25 13:02:15;;;;;;;25.43;23.73;;;;;;;;;;5134800;27;20906;-75
2022/10/25 13:04:50;;;;;;;24.77;22.97;;;;;;;;;;5134856;27;20494;-76
2022/10/25 13:07:18;;;;;;;25.20;23.70;;;;;;;;;;5135288;27;20428;-77
2022/10/25 13:09:46;;;;;;;24.80;23.00;;;;;;;;;;5135295;27;20446;-78
2022/10/25 13:12:20;;;;;;;23.03;21.43;;;;;;;;;;5134623;27;20457;-78
2022/10/25 13:14:50;;;;;;;26.20;24.40;;;;;;;;;;5135650;27;20432;-78
2022/10/25 13:17:36;;;;;;;25.80;23.80;;;;;;;;;;5138768;27;20517;-76
2022/10/25 13:20:22;;;;;;;25.33;23.60;;;;;;;;;;5136643;27;20993;-79
2022/10/25 13:22:50;;;;;;;24.70;22.90;;;;;;;;;;5144291;27;20832;-84
2022/10/25 13:25:39;;;;;;;25.70;23.70;;;;;;;;;;5138232;27;20448;-76
2022/10/25 13:28:20;;;;;;;24.77;23.27;;;;;;;;;;5134562;27;20449;-76
2022/10/25 13:30:48;;;;;;;25.43;23.83;;;;;;;;;;5134789;27;20469;-77
2022/10/25 13:33:32;;;;;;;25.90;24.10;;;;;;;;;;5135585;27;20465;-79
2022/10/25 13:36:03;;;;;;;26.33;24.40;;;;;;;;;;5134350;27;20804;-77
2022/10/25 13:38:31;;;;;;;27.07;25.07;;;;;;;;;;5132269;27;20548;-76
2022/10/25 13:41:07;;;;;;;26.20;24.27;;;;;;;;;;5133675;27;20468;-76
2022/10/25 13:43:35;;;;;;;26.83;24.83;;;;;;;;;;5134298;27;20461;-76
2022/10/25 13:46:03;;;;;;;26.50;24.73;;;;;;;;;;5133315;27;20428;-76
2022/10/25 13:48:32;;;;;;;26.60;24.60;;;;;;;;;;5134611;27;20484;-75
2022/10/25 13:51:01;;;;;;;28.20;25.60;;;;;;;;;;5134081;27;20426;-76
2022/10/25 13:53:34;;;;;;;26.73;24.50;;;;;;;;;;5134122;27;20474;-75
2022/10/25 13:56:04;;;;;;;26.70;24.57;;;;;;;;;;5134294;27;20411;-77
2022/10/25 13:58:40;;;;;;;28.07;25.63;;;;;;;;;;5134115;27;20485;-76
2022/10/25 14:01:23;;;;;;;26.73;24.43;;;;;;;;;;5133657;27;21013;-76
2022/10/25 14:03:52;;;;;;;26.30;24.50;;;;;;;;;;5133902;27;20507;-75
2022/10/25 14:06:25;;;;;;;25.53;23.73;;;;;;;;;;5134337;27;20455;-76
2022/10/25 14:08:55;;;;;;;25.47;23.77;;;;;;;;;;5133995;27;20441;-76
2022/10/25 14:11:25;;;;;;;27.63;25.40;;;;;;;;;;5133414;27;20453;-76
2022/10/25 14:13:56;;;;;;;26.37;24.43;;;;;;;;;;5133886;27;20472;-76
2022/10/25 14:16:26;;;;;;;27.67;25.63;;;;;;;;;;5134193;27;20490;-75
2022/10/25 14:18:54;;;;;;;27.30;25.03;;;;;;;;;;5134104;27;20914;-75
2022/10/25 14:21:21;;;;;;;27.77;25.87;;;;;;;;;;5133627;27;20447;-76
2022/10/25 14:23:50;;;;;;;26.83;24.93;;;;;;;;;;5133631;27;20478;-75
2022/10/25 14:26:20;;;;;;;27.43;25.33;;;;;;;;;;5134011;27;20448;-75
2022/10/25 14:28:47;;;;;;;29.37;26.80;;;;;;;;;;5132416;27;20446;-77
2022/10/25 14:31:18;;;;;;;27.80;25.70;;;;;;;;;;5133534;27;20408;-75